sensor_id;sensor_type;location;lat;lon;timestamp;P1;durP1;ratioP1;P2;durP2;ratioP2
5999;SDS011;3028;49.468;7.694;2023-05-09T00:01:29;13.23;;;12.25;;
5999;SDS011;3028;49.468;7.694;2023-05-09T00:03:31;12.45;;;11.60;;
5999;SDS011;3028;49.468;7.694;2023-05-09T00:05:33;10.90;;;10.13;;
5999;SDS011;3028;49.468;7.694;2023-05-09T00:07:35;10.60;;;9.68;;
5999;SDS011;3028;49.468;7.694;2023-05-09T00:09:36;10.45;;;9.75;;
5999;SDS011;3028;49.468;7.694;2023-05-09T00:11:38;10.95;;;10.23;;
5999;SDS011;3028;49.468;7.694;2023-05-09T00:13:40;11.88;;;11.10;;
5999;SDS011;3028;49.468;7.694;2023-05-09T00:15:42;10.43;;;9.63;;
5999;SDS011;3028;49.468;7.694;2023-05-09T00:17:44;12.50;;;11.70;;
5999;SDS011;3028;49.468;7.694;2023-05-09T00:19:47;12.07;;;11.25;;
5999;SDS011;3028;49.468;7.694;2023-05-09T00:21:49;12.35;;;11.57;;
5999;SDS011;3028;49.468;7.694;2023-05-09T00:23:52;13.30;;;12.30;;
5999;SDS011;3028;49.468;7.694;2023-05-09T00:25:53;12.90;;;11.93;;
5999;SDS011;3028;49.468;7.694;2023-05-09T00:27:55;12.43;;;11.63;;
5999;SDS011;3028;49.468;7.694;2023-05-09T00:29:57;11.43;;;10.73;;
5999;SDS011;3028;49.468;7.694;2023-05-09T00:31:59;11.05;;;10.30;;
5999;SDS011;3028;49.468;7.694;2023-05-09T00:34:00;13.18;;;12.27;;
5999;SDS011;3028;49.468;7.694;2023-05-09T00:36:02;11.60;;;10.80;;
5999;SDS011;3028;49.468;7.694;2023-05-09T00:38:04;11.70;;;10.98;;
5999;SDS011;3028;49.468;7.694;2023-05-09T00:40:06;11.35;;;10.65;;
5999;SDS011;3028;49.468;7.694;2023-05-09T00:42:09;11.05;;;10.20;;
5999;SDS011;3028;49.468;7.694;2023-05-09T00:44:11;12.40;;;11.50;;
5999;SDS011;3028;49.468;7.694;2023-05-09T00:46:12;11.00;;;10.20;;
5999;SDS011;3028;49.468;7.694;2023-05-09T00:48:14;12.00;;;11.10;;
5999;SDS011;3028;49.468;7.694;2023-05-09T00:50:16;11.43;;;10.50;;
5999;SDS011;3028;49.468;7.694;2023-05-09T00:52:18;11.45;;;10.73;;
5999;SDS011;3028;49.468;7.694;2023-05-09T00:54:23;12.23;;;10.93;;
5999;SDS011;3028;49.468;7.694;2023-05-09T00:56:25;11.95;;;11.00;;
5999;SDS011;3028;49.468;7.694;2023-05-09T00:58:28;12.93;;;12.02;;
5999;SDS011;3028;49.468;7.694;2023-05-09T01:00:30;10.93;;;10.13;;
5999;SDS011;3028;49.468;7.694;2023-05-09T01:02:32;11.13;;;10.32;;
5999;SDS011;3028;49.468;7.694;2023-05-09T01:04:34;11.15;;;10.30;;
5999;SDS011;3028;49.468;7.694;2023-05-09T01:06:37;15.00;;;10.15;;
5999;SDS011;3028;49.468;7.694;2023-05-09T01:10:50;12.13;;;11.25;;
5999;SDS011;3028;49.468;7.694;2023-05-09T01:13:05;11.05;;;10.35;;
5999;SDS011;3028;49.468;7.694;2023-05-09T01:21:56;11.68;;;10.63;;
5999;SDS011;3028;49.468;7.694;2023-05-09T01:31:00;12.27;;;11.48;;
5999;SDS011;3028;49.468;7.694;2023-05-09T01:33:05;12.55;;;11.65;;
5999;SDS011;3028;49.468;7.694;2023-05-09T01:35:07;11.55;;;10.80;;
5999;SDS011;3028;49.468;7.694;2023-05-09T01:37:14;10.75;;;10.05;;
5999;SDS011;3028;49.468;7.694;2023-05-09T01:39:16;10.45;;;9.75;;
5999;SDS011;3028;49.468;7.694;2023-05-09T01:41:18;12.07;;;11.35;;
5999;SDS011;3028;49.468;7.694;2023-05-09T01:43:22;10.52;;;9.82;;
5999;SDS011;3028;49.468;7.694;2023-05-09T01:45:26;11.02;;;10.05;;
5999;SDS011;3028;49.468;7.694;2023-05-09T01:47:28;11.40;;;10.23;;
5999;SDS011;3028;49.468;7.694;2023-05-09T01:49:30;11.15;;;10.45;;
5999;SDS011;3028;49.468;7.694;2023-05-09T01:51:33;11.23;;;10.43;;
5999;SDS011;3028;49.468;7.694;2023-05-09T01:53:35;10.15;;;9.55;;
5999;SDS011;3028;49.468;7.694;2023-05-09T01:55:37;12.20;;;11.30;;
5999;SDS011;3028;49.468;7.694;2023-05-09T01:57:40;10.95;;;10.15;;
5999;SDS011;3028;49.468;7.694;2023-05-09T01:59:43;10.35;;;9.65;;
5999;SDS011;3028;49.468;7.694;2023-05-09T02:01:45;12.57;;;11.68;;
5999;SDS011;3028;49.468;7.694;2023-05-09T02:03:47;12.00;;;11.15;;
5999;SDS011;3028;49.468;7.694;2023-05-09T02:05:52;10.68;;;9.23;;
5999;SDS011;3028;49.468;7.694;2023-05-09T02:07:56;10.90;;;10.20;;
5999;SDS011;3028;49.468;7.694;2023-05-09T02:09:58;10.38;;;9.68;;
5999;SDS011;3028;49.468;7.694;2023-05-09T02:12:01;12.30;;;11.45;;
5999;SDS011;3028;49.468;7.694;2023-05-09T02:14:04;11.05;;;10.15;;
5999;SDS011;3028;49.468;7.694;2023-05-09T02:16:06;11.57;;;10.60;;
5999;SDS011;3028;49.468;7.694;2023-05-09T02:18:08;11.07;;;10.38;;
5999;SDS011;3028;49.468;7.694;2023-05-09T02:20:10;11.18;;;10.43;;
5999;SDS011;3028;49.468;7.694;2023-05-09T02:22:12;11.82;;;11.05;;
5999;SDS011;3028;49.468;7.694;2023-05-09T02:24:14;10.52;;;9.52;;
5999;SDS011;3028;49.468;7.694;2023-05-09T02:26:15;11.20;;;10.50;;
5999;SDS011;3028;49.468;7.694;2023-05-09T02:28:17;10.75;;;9.85;;
5999;SDS011;3028;49.468;7.694;2023-05-09T02:30:20;11.70;;;10.90;;
5999;SDS011;3028;49.468;7.694;2023-05-09T02:32:26;13.27;;;12.20;;
5999;SDS011;3028;49.468;7.694;2023-05-09T02:34:29;10.77;;;10.07;;
5999;SDS011;3028;49.468;7.694;2023-05-09T02:36:31;12.23;;;10.13;;
5999;SDS011;3028;49.468;7.694;2023-05-09T02:38:33;11.38;;;10.63;;
5999;SDS011;3028;49.468;7.694;2023-05-09T02:40:35;11.32;;;10.27;;
5999;SDS011;3028;49.468;7.694;2023-05-09T02:42:37;11.75;;;10.95;;
5999;SDS011;3028;49.468;7.694;2023-05-09T02:44:39;10.55;;;9.85;;
5999;SDS011;3028;49.468;7.694;2023-05-09T02:46:41;10.57;;;9.88;;
5999;SDS011;3028;49.468;7.694;2023-05-09T02:48:42;10.80;;;10.10;;
5999;SDS011;3028;49.468;7.694;2023-05-09T02:50:45;11.40;;;10.60;;
5999;SDS011;3028;49.468;7.694;2023-05-09T02:52:46;12.35;;;11.35;;
5999;SDS011;3028;49.468;7.694;2023-05-09T02:54:48;10.98;;;10.27;;
5999;SDS011;3028;49.468;7.694;2023-05-09T02:56:50;11.30;;;10.52;;
5999;SDS011;3028;49.468;7.694;2023-05-09T02:58:52;11.25;;;10.45;;
5999;SDS011;3028;49.468;7.694;2023-05-09T03:00:53;11.20;;;10.45;;
5999;SDS011;3028;49.468;7.694;2023-05-09T03:02:55;10.77;;;10.07;;
5999;SDS011;3028;49.468;7.694;2023-05-09T03:04:57;9.88;;;9.18;;
5999;SDS011;3028;49.468;7.694;2023-05-09T03:06:59;9.82;;;9.23;;
5999;SDS011;3028;49.468;7.694;2023-05-09T03:09:00;10.20;;;9.55;;
5999;SDS011;3028;49.468;7.694;2023-05-09T03:11:02;9.68;;;8.50;;
5999;SDS011;3028;49.468;7.694;2023-05-09T03:13:04;9.70;;;9.02;;
5999;SDS011;3028;49.468;7.694;2023-05-09T03:15:06;12.05;;;11.27;;
5999;SDS011;3028;49.468;7.694;2023-05-09T03:17:09;10.23;;;9.52;;
5999;SDS011;3028;49.468;7.694;2023-05-09T03:19:11;11.02;;;10.25;;
5999;SDS011;3028;49.468;7.694;2023-05-09T03:21:13;10.43;;;9.63;;
5999;SDS011;3028;49.468;7.694;2023-05-09T03:23:14;10.85;;;10.10;;
5999;SDS011;3028;49.468;7.694;2023-05-09T03:25:16;11.07;;;10.27;;
5999;SDS011;3028;49.468;7.694;2023-05-09T03:27:18;11.25;;;10.23;;
5999;SDS011;3028;49.468;7.694;2023-05-09T03:29:20;13.23;;;12.35;;
5999;SDS011;3028;49.468;7.694;2023-05-09T03:31:21;10.93;;;10.13;;
5999;SDS011;3028;49.468;7.694;2023-05-09T03:33:24;11.35;;;10.57;;
5999;SDS011;3028;49.468;7.694;2023-05-09T03:35:26;10.82;;;10.13;;
5999;SDS011;3028;49.468;7.694;2023-05-09T03:37:28;9.90;;;9.23;;
5999;SDS011;3028;49.468;7.694;2023-05-09T03:39:30;11.95;;;11.07;;
5999;SDS011;3028;49.468;7.694;2023-05-09T03:41:32;10.60;;;9.73;;
5999;SDS011;3028;49.468;7.694;2023-05-09T03:43:36;11.52;;;10.80;;
5999;SDS011;3028;49.468;7.694;2023-05-09T03:45:38;10.43;;;9.63;;
5999;SDS011;3028;49.468;7.694;2023-05-09T03:47:40;10.27;;;9.57;;
5999;SDS011;3028;49.468;7.694;2023-05-09T03:49:42;10.25;;;9.52;;
5999;SDS011;3028;49.468;7.694;2023-05-09T03:51:43;9.52;;;8.82;;
5999;SDS011;3028;49.468;7.694;2023-05-09T03:53:49;11.65;;;10.95;;
5999;SDS011;3028;49.468;7.694;2023-05-09T03:55:51;11.23;;;10.43;;
5999;SDS011;3028;49.468;7.694;2023-05-09T03:57:53;10.77;;;10.07;;
5999;SDS011;3028;49.468;7.694;2023-05-09T03:59:55;11.63;;;10.82;;
5999;SDS011;3028;49.468;7.694;2023-05-09T04:01:57;11.80;;;11.00;;
5999;SDS011;3028;49.468;7.694;2023-05-09T04:03:59;11.57;;;10.77;;
5999;SDS011;3028;49.468;7.694;2023-05-09T04:06:01;11.13;;;10.05;;
5999;SDS011;3028;49.468;7.694;2023-05-09T04:08:03;11.73;;;10.73;;
5999;SDS011;3028;49.468;7.694;2023-05-09T04:10:05;10.80;;;10.00;;
5999;SDS011;3028;49.468;7.694;2023-05-09T04:12:07;11.43;;;10.63;;
5999;SDS011;3028;49.468;7.694;2023-05-09T04:14:09;14.77;;;13.68;;
5999;SDS011;3028;49.468;7.694;2023-05-09T04:16:11;16.88;;;15.57;;
5999;SDS011;3028;49.468;7.694;2023-05-09T04:18:13;19.15;;;16.75;;
5999;SDS011;3028;49.468;7.694;2023-05-09T04:20:14;16.80;;;13.65;;
5999;SDS011;3028;49.468;7.694;2023-05-09T04:22:16;14.75;;;13.65;;
5999;SDS011;3028;49.468;7.694;2023-05-09T04:24:20;15.07;;;13.98;;
5999;SDS011;3028;49.468;7.694;2023-05-09T04:26:26;14.40;;;13.40;;
5999;SDS011;3028;49.468;7.694;2023-05-09T04:28:29;13.57;;;12.27;;
5999;SDS011;3028;49.468;7.694;2023-05-09T04:30:30;13.07;;;12.07;;
5999;SDS011;3028;49.468;7.694;2023-05-09T04:32:32;11.40;;;10.60;;
5999;SDS011;3028;49.468;7.694;2023-05-09T04:34:34;13.18;;;11.82;;
5999;SDS011;3028;49.468;7.694;2023-05-09T04:36:36;12.20;;;11.05;;
5999;SDS011;3028;49.468;7.694;2023-05-09T04:38:37;11.95;;;11.05;;
5999;SDS011;3028;49.468;7.694;2023-05-09T04:40:39;12.93;;;12.02;;
5999;SDS011;3028;49.468;7.694;2023-05-09T04:42:41;13.75;;;12.55;;
5999;SDS011;3028;49.468;7.694;2023-05-09T04:44:43;13.77;;;12.77;;
5999;SDS011;3028;49.468;7.694;2023-05-09T04:46:45;18.60;;;13.32;;
5999;SDS011;3028;49.468;7.694;2023-05-09T04:48:47;13.77;;;12.80;;
5999;SDS011;3028;49.468;7.694;2023-05-09T04:50:49;12.95;;;11.93;;
5999;SDS011;3028;49.468;7.694;2023-05-09T04:52:50;14.55;;;13.43;;
5999;SDS011;3028;49.468;7.694;2023-05-09T04:54:52;13.45;;;12.38;;
5999;SDS011;3028;49.468;7.694;2023-05-09T04:56:54;13.07;;;12.15;;
5999;SDS011;3028;49.468;7.694;2023-05-09T04:59:10;12.65;;;11.48;;
5999;SDS011;3028;49.468;7.694;2023-05-09T05:01:12;13.38;;;12.45;;
5999;SDS011;3028;49.468;7.694;2023-05-09T05:03:13;14.48;;;13.40;;
5999;SDS011;3028;49.468;7.694;2023-05-09T05:05:15;19.63;;;13.63;;
5999;SDS011;3028;49.468;7.694;2023-05-09T05:07:17;15.30;;;13.82;;
5999;SDS011;3028;49.468;7.694;2023-05-09T05:09:19;16.95;;;15.40;;
5999;SDS011;3028;49.468;7.694;2023-05-09T05:11:21;18.85;;;17.08;;
5999;SDS011;3028;49.468;7.694;2023-05-09T05:13:23;16.30;;;15.10;;
5999;SDS011;3028;49.468;7.694;2023-05-09T05:15:25;13.32;;;12.23;;
5999;SDS011;3028;49.468;7.694;2023-05-09T05:17:27;16.73;;;15.00;;
5999;SDS011;3028;49.468;7.694;2023-05-09T05:19:31;18.73;;;14.68;;
5999;SDS011;3028;49.468;7.694;2023-05-09T05:21:37;17.90;;;16.40;;
5999;SDS011;3028;49.468;7.694;2023-05-09T05:23:42;16.73;;;15.18;;
5999;SDS011;3028;49.468;7.694;2023-05-09T05:25:46;19.65;;;18.00;;
5999;SDS011;3028;49.468;7.694;2023-05-09T05:27:48;18.17;;;16.38;;
5999;SDS011;3028;49.468;7.694;2023-05-09T05:29:51;19.80;;;17.88;;
5999;SDS011;3028;49.468;7.694;2023-05-09T05:31:52;20.23;;;18.17;;
5999;SDS011;3028;49.468;7.694;2023-05-09T05:33:54;18.75;;;16.85;;
5999;SDS011;3028;49.468;7.694;2023-05-09T05:35:56;20.90;;;18.95;;
5999;SDS011;3028;49.468;7.694;2023-05-09T05:37:58;23.05;;;19.52;;
5999;SDS011;3028;49.468;7.694;2023-05-09T05:40:00;21.33;;;19.20;;
5999;SDS011;3028;49.468;7.694;2023-05-09T05:42:02;24.20;;;19.08;;
5999;SDS011;3028;49.468;7.694;2023-05-09T05:44:04;35.85;;;21.80;;
5999;SDS011;3028;49.468;7.694;2023-05-09T05:46:08;27.77;;;19.73;;
5999;SDS011;3028;49.468;7.694;2023-05-09T05:48:10;27.30;;;21.25;;
5999;SDS011;3028;49.468;7.694;2023-05-09T05:50:12;30.67;;;23.13;;
5999;SDS011;3028;49.468;7.694;2023-05-09T05:52:14;30.00;;;22.77;;
5999;SDS011;3028;49.468;7.694;2023-05-09T05:54:16;30.90;;;22.48;;
5999;SDS011;3028;49.468;7.694;2023-05-09T05:56:18;31.63;;;22.13;;
5999;SDS011;3028;49.468;7.694;2023-05-09T05:58:19;45.55;;;25.50;;
5999;SDS011;3028;49.468;7.694;2023-05-09T06:00:21;46.50;;;25.63;;
5999;SDS011;3028;49.468;7.694;2023-05-09T06:02:23;50.58;;;26.83;;
5999;SDS011;3028;49.468;7.694;2023-05-09T06:04:25;43.28;;;25.02;;
5999;SDS011;3028;49.468;7.694;2023-05-09T06:06:28;43.17;;;25.98;;
5999;SDS011;3028;49.468;7.694;2023-05-09T06:08:30;35.90;;;24.63;;
5999;SDS011;3028;49.468;7.694;2023-05-09T06:10:32;34.28;;;26.48;;
5999;SDS011;3028;49.468;7.694;2023-05-09T06:12:33;28.98;;;24.27;;
5999;SDS011;3028;49.468;7.694;2023-05-09T06:14:35;35.53;;;24.38;;
5999;SDS011;3028;49.468;7.694;2023-05-09T06:16:37;34.90;;;24.77;;
5999;SDS011;3028;49.468;7.694;2023-05-09T06:18:39;29.67;;;23.63;;
5999;SDS011;3028;49.468;7.694;2023-05-09T06:20:41;32.33;;;24.73;;
5999;SDS011;3028;49.468;7.694;2023-05-09T06:22:43;28.08;;;24.00;;
5999;SDS011;3028;49.468;7.694;2023-05-09T06:24:45;26.10;;;23.15;;
5999;SDS011;3028;49.468;7.694;2023-05-09T06:26:46;25.30;;;22.92;;
5999;SDS011;3028;49.468;7.694;2023-05-09T06:28:50;28.98;;;22.77;;
5999;SDS011;3028;49.468;7.694;2023-05-09T06:30:52;23.77;;;21.35;;
5999;SDS011;3028;49.468;7.694;2023-05-09T06:32:54;23.75;;;20.75;;
5999;SDS011;3028;49.468;7.694;2023-05-09T06:34:56;24.02;;;21.73;;
5999;SDS011;3028;49.468;7.694;2023-05-09T06:36:58;24.65;;;21.80;;
5999;SDS011;3028;49.468;7.694;2023-05-09T06:39:00;24.17;;;21.45;;
5999;SDS011;3028;49.468;7.694;2023-05-09T06:41:01;22.27;;;20.15;;
5999;SDS011;3028;49.468;7.694;2023-05-09T06:43:03;25.52;;;20.00;;
5999;SDS011;3028;49.468;7.694;2023-05-09T06:45:05;20.13;;;18.15;;
5999;SDS011;3028;49.468;7.694;2023-05-09T06:47:07;23.95;;;21.60;;
5999;SDS011;3028;49.468;7.694;2023-05-09T06:49:09;21.67;;;19.58;;
5999;SDS011;3028;49.468;7.694;2023-05-09T06:51:14;20.65;;;18.75;;
5999;SDS011;3028;49.468;7.694;2023-05-09T06:53:16;20.55;;;18.65;;
5999;SDS011;3028;49.468;7.694;2023-05-09T06:55:18;21.13;;;19.00;;
5999;SDS011;3028;49.468;7.694;2023-05-09T06:57:25;20.50;;;18.35;;
5999;SDS011;3028;49.468;7.694;2023-05-09T06:59:27;19.15;;;17.45;;
5999;SDS011;3028;49.468;7.694;2023-05-09T07:01:30;20.70;;;18.55;;
5999;SDS011;3028;49.468;7.694;2023-05-09T07:03:33;20.35;;;18.27;;
5999;SDS011;3028;49.468;7.694;2023-05-09T07:05:35;19.38;;;17.73;;
5999;SDS011;3028;49.468;7.694;2023-05-09T07:07:40;19.23;;;17.52;;
5999;SDS011;3028;49.468;7.694;2023-05-09T07:09:43;19.88;;;17.88;;
5999;SDS011;3028;49.468;7.694;2023-05-09T07:11:45;20.48;;;18.67;;
5999;SDS011;3028;49.468;7.694;2023-05-09T07:13:48;21.05;;;19.35;;
5999;SDS011;3028;49.468;7.694;2023-05-09T07:15:50;21.35;;;19.25;;
5999;SDS011;3028;49.468;7.694;2023-05-09T07:17:54;19.73;;;17.95;;
5999;SDS011;3028;49.468;7.694;2023-05-09T07:19:56;21.63;;;19.75;;
5999;SDS011;3028;49.468;7.694;2023-05-09T07:21:58;20.92;;;19.20;;
5999;SDS011;3028;49.468;7.694;2023-05-09T07:24:01;20.52;;;18.50;;
5999;SDS011;3028;49.468;7.694;2023-05-09T07:26:03;23.60;;;21.23;;
5999;SDS011;3028;49.468;7.694;2023-05-09T07:28:11;17.77;;;16.38;;
5999;SDS011;3028;49.468;7.694;2023-05-09T07:30:13;18.92;;;17.20;;
5999;SDS011;3028;49.468;7.694;2023-05-09T07:32:15;18.02;;;16.52;;
5999;SDS011;3028;49.468;7.694;2023-05-09T07:34:18;18.55;;;17.05;;
5999;SDS011;3028;49.468;7.694;2023-05-09T07:36:21;17.33;;;15.85;;
5999;SDS011;3028;49.468;7.694;2023-05-09T07:38:23;17.23;;;15.52;;
5999;SDS011;3028;49.468;7.694;2023-05-09T07:40:30;19.15;;;15.68;;
5999;SDS011;3028;49.468;7.694;2023-05-09T07:42:34;14.70;;;13.55;;
5999;SDS011;3028;49.468;7.694;2023-05-09T07:44:36;17.08;;;15.07;;
5999;SDS011;3028;49.468;7.694;2023-05-09T07:46:38;11.93;;;11.05;;
5999;SDS011;3028;49.468;7.694;2023-05-09T07:48:42;8.40;;;7.80;;
5999;SDS011;3028;49.468;7.694;2023-05-09T07:50:44;8.40;;;7.50;;
5999;SDS011;3028;49.468;7.694;2023-05-09T07:52:46;6.95;;;6.43;;
5999;SDS011;3028;49.468;7.694;2023-05-09T07:54:48;5.38;;;4.90;;
5999;SDS011;3028;49.468;7.694;2023-05-09T07:56:54;5.40;;;4.43;;
5999;SDS011;3028;49.468;7.694;2023-05-09T07:59:01;4.72;;;4.35;;
5999;SDS011;3028;49.468;7.694;2023-05-09T08:01:03;3.92;;;3.63;;
5999;SDS011;3028;49.468;7.694;2023-05-09T08:03:06;4.25;;;3.95;;
5999;SDS011;3028;49.468;7.694;2023-05-09T08:05:09;3.70;;;3.40;;
5999;SDS011;3028;49.468;7.694;2023-05-09T08:07:13;3.17;;;2.92;;
5999;SDS011;3028;49.468;7.694;2023-05-09T08:09:16;3.97;;;3.70;;
5999;SDS011;3028;49.468;7.694;2023-05-09T08:11:21;4.30;;;4.00;;
5999;SDS011;3028;49.468;7.694;2023-05-09T08:13:23;4.70;;;4.30;;
5999;SDS011;3028;49.468;7.694;2023-05-09T08:15:26;4.00;;;3.67;;
5999;SDS011;3028;49.468;7.694;2023-05-09T08:17:28;5.78;;;3.78;;
5999;SDS011;3028;49.468;7.694;2023-05-09T08:19:31;3.28;;;2.78;;
5999;SDS011;3028;49.468;7.694;2023-05-09T08:21:33;3.90;;;3.40;;
5999;SDS011;3028;49.468;7.694;2023-05-09T08:23:36;4.07;;;3.28;;
5999;SDS011;3028;49.468;7.694;2023-05-09T08:25:39;3.80;;;3.13;;
5999;SDS011;3028;49.468;7.694;2023-05-09T08:27:42;3.08;;;2.88;;
5999;SDS011;3028;49.468;7.694;2023-05-09T08:29:45;5.13;;;4.38;;
5999;SDS011;3028;49.468;7.694;2023-05-09T08:31:47;3.42;;;2.95;;
5999;SDS011;3028;49.468;7.694;2023-05-09T08:33:50;3.38;;;3.08;;
5999;SDS011;3028;49.468;7.694;2023-05-09T08:35:54;5.40;;;3.95;;
5999;SDS011;3028;49.468;7.694;2023-05-09T08:37:56;2.70;;;2.50;;
5999;SDS011;3028;49.468;7.694;2023-05-09T08:39:59;2.42;;;2.30;;
5999;SDS011;3028;49.468;7.694;2023-05-09T08:42:01;2.35;;;2.10;;
5999;SDS011;3028;49.468;7.694;2023-05-09T08:44:03;2.67;;;2.47;;
5999;SDS011;3028;49.468;7.694;2023-05-09T08:46:06;3.80;;;3.40;;
5999;SDS011;3028;49.468;7.694;2023-05-09T08:48:08;2.95;;;2.22;;
5999;SDS011;3028;49.468;7.694;2023-05-09T08:50:10;8.32;;;2.38;;
5999;SDS011;3028;49.468;7.694;2023-05-09T08:52:15;2.95;;;2.72;;
5999;SDS011;3028;49.468;7.694;2023-05-09T08:54:18;2.35;;;2.10;;
5999;SDS011;3028;49.468;7.694;2023-05-09T08:56:23;2.72;;;2.53;;
5999;SDS011;3028;49.468;7.694;2023-05-09T08:58:26;3.20;;;2.97;;
5999;SDS011;3028;49.468;7.694;2023-05-09T09:00:35;2.88;;;2.60;;
5999;SDS011;3028;49.468;7.694;2023-05-09T09:02:46;6.28;;;2.70;;
5999;SDS011;3028;49.468;7.694;2023-05-09T09:04:57;2.50;;;2.30;;
5999;SDS011;3028;49.468;7.694;2023-05-09T09:06:59;3.08;;;2.70;;
5999;SDS011;3028;49.468;7.694;2023-05-09T09:09:05;2.85;;;2.58;;
5999;SDS011;3028;49.468;7.694;2023-05-09T09:11:15;2.60;;;2.40;;
5999;SDS011;3028;49.468;7.694;2023-05-09T09:13:23;1093.22;;;101.80;;
5999;SDS011;3028;49.468;7.694;2023-05-09T09:15:27;26.50;;;4.97;;
5999;SDS011;3028;49.468;7.694;2023-05-09T09:17:37;70.82;;;7.32;;
5999;SDS011;3028;49.468;7.694;2023-05-09T09:19:54;29.02;;;4.32;;
5999;SDS011;3028;49.468;7.694;2023-05-09T09:22:01;5.18;;;2.40;;
5999;SDS011;3028;49.468;7.694;2023-05-09T09:24:11;6.63;;;2.38;;
5999;SDS011;3028;49.468;7.694;2023-05-09T09:26:15;2.20;;;1.88;;
5999;SDS011;3028;49.468;7.694;2023-05-09T09:28:18;4.40;;;1.92;;
5999;SDS011;3028;49.468;7.694;2023-05-09T09:30:24;2.38;;;1.98;;
5999;SDS011;3028;49.468;7.694;2023-05-09T09:32:31;2.10;;;1.83;;
5999;SDS011;3028;49.468;7.694;2023-05-09T09:34:48;2.22;;;2.03;;
5999;SDS011;3028;49.468;7.694;2023-05-09T09:36:54;2.85;;;2.00;;
5999;SDS011;3028;49.468;7.694;2023-05-09T09:39:00;2.25;;;2.03;;
5999;SDS011;3028;49.468;7.694;2023-05-09T09:41:37;3.33;;;2.72;;
5999;SDS011;3028;49.468;7.694;2023-05-09T09:43:42;4.50;;;3.55;;
5999;SDS011;3028;49.468;7.694;2023-05-09T09:45:49;2.70;;;2.03;;
5999;SDS011;3028;49.468;7.694;2023-05-09T09:47:56;2.28;;;2.08;;
5999;SDS011;3028;49.468;7.694;2023-05-09T09:50:18;1.92;;;1.83;;
5999;SDS011;3028;49.468;7.694;2023-05-09T09:52:24;2.58;;;2.15;;
5999;SDS011;3028;49.468;7.694;2023-05-09T09:54:29;5.00;;;2.80;;
5999;SDS011;3028;49.468;7.694;2023-05-09T09:56:43;3.17;;;2.80;;
5999;SDS011;3028;49.468;7.694;2023-05-09T09:58:46;2.08;;;1.88;;
5999;SDS011;3028;49.468;7.694;2023-05-09T10:01:05;4.00;;;2.00;;
5999;SDS011;3028;49.468;7.694;2023-05-09T10:03:14;2.83;;;2.63;;
5999;SDS011;3028;49.468;7.694;2023-05-09T10:05:28;3.08;;;2.10;;
5999;SDS011;3028;49.468;7.694;2023-05-09T10:07:33;2.00;;;1.80;;
5999;SDS011;3028;49.468;7.694;2023-05-09T10:09:35;2.22;;;2.03;;
5999;SDS011;3028;49.468;7.694;2023-05-09T10:11:41;2.50;;;2.30;;
5999;SDS011;3028;49.468;7.694;2023-05-09T10:13:44;3.08;;;2.88;;
5999;SDS011;3028;49.468;7.694;2023-05-09T10:15:46;2.28;;;2.08;;
5999;SDS011;3028;49.468;7.694;2023-05-09T10:17:55;2.88;;;2.45;;
5999;SDS011;3028;49.468;7.694;2023-05-09T10:20:00;3.20;;;2.63;;
5999;SDS011;3028;49.468;7.694;2023-05-09T10:22:05;2.55;;;2.28;;
5999;SDS011;3028;49.468;7.694;2023-05-09T10:24:10;2.75;;;2.53;;
5999;SDS011;3028;49.468;7.694;2023-05-09T10:26:24;2.28;;;2.17;;
5999;SDS011;3028;49.468;7.694;2023-05-09T10:28:30;2.63;;;2.17;;
5999;SDS011;3028;49.468;7.694;2023-05-09T10:30:34;2.22;;;2.13;;
5999;SDS011;3028;49.468;7.694;2023-05-09T10:34:50;2.97;;;1.90;;
5999;SDS011;3028;49.468;7.694;2023-05-09T10:36:53;2.30;;;2.10;;
5999;SDS011;3028;49.468;7.694;2023-05-09T10:38:56;2.50;;;2.30;;
5999;SDS011;3028;49.468;7.694;2023-05-09T10:40:58;2.35;;;2.13;;
5999;SDS011;3028;49.468;7.694;2023-05-09T10:43:01;2.55;;;1.80;;
5999;SDS011;3028;49.468;7.694;2023-05-09T10:45:03;2.20;;;2.00;;
5999;SDS011;3028;49.468;7.694;2023-05-09T10:47:07;3.45;;;1.85;;
5999;SDS011;3028;49.468;7.694;2023-05-09T10:49:12;2.80;;;2.60;;
5999;SDS011;3028;49.468;7.694;2023-05-09T10:51:14;4.15;;;2.05;;
5999;SDS011;3028;49.468;7.694;2023-05-09T10:53:17;1.60;;;1.50;;
5999;SDS011;3028;49.468;7.694;2023-05-09T10:55:19;4.05;;;2.08;;
5999;SDS011;3028;49.468;7.694;2023-05-09T10:57:21;2.58;;;1.90;;
5999;SDS011;3028;49.468;7.694;2023-05-09T10:59:33;1.50;;;1.40;;
5999;SDS011;3028;49.468;7.694;2023-05-09T11:01:40;1.98;;;1.70;;
5999;SDS011;3028;49.468;7.694;2023-05-09T11:03:55;1.83;;;1.73;;
5999;SDS011;3028;49.468;7.694;2023-05-09T11:05:59;2.47;;;2.28;;
5999;SDS011;3028;49.468;7.694;2023-05-09T11:10:21;2.00;;;1.90;;
5999;SDS011;3028;49.468;7.694;2023-05-09T11:12:23;2.55;;;2.00;;
5999;SDS011;3028;49.468;7.694;2023-05-09T11:16:49;2.17;;;2.08;;
5999;SDS011;3028;49.468;7.694;2023-05-09T11:18:57;2.08;;;1.80;;
5999;SDS011;3028;49.468;7.694;2023-05-09T11:21:06;5.57;;;2.05;;
5999;SDS011;3028;49.468;7.694;2023-05-09T11:23:09;2.47;;;1.67;;
5999;SDS011;3028;49.468;7.694;2023-05-09T11:25:23;2.17;;;2.00;;
5999;SDS011;3028;49.468;7.694;2023-05-09T11:27:26;1.98;;;1.60;;
5999;SDS011;3028;49.468;7.694;2023-05-09T11:29:29;2.08;;;1.92;;
5999;SDS011;3028;49.468;7.694;2023-05-09T11:31:31;1.88;;;1.77;;
5999;SDS011;3028;49.468;7.694;2023-05-09T11:33:35;2.42;;;1.67;;
5999;SDS011;3028;49.468;7.694;2023-05-09T11:35:37;1.60;;;1.50;;
5999;SDS011;3028;49.468;7.694;2023-05-09T11:37:49;3.65;;;1.48;;
5999;SDS011;3028;49.468;7.694;2023-05-09T11:40:01;2.90;;;1.40;;
5999;SDS011;3028;49.468;7.694;2023-05-09T11:42:06;1.90;;;1.27;;
5999;SDS011;3028;49.468;7.694;2023-05-09T11:44:17;1.08;;;1.08;;
5999;SDS011;3028;49.468;7.694;2023-05-09T11:46:27;2.38;;;2.10;;
5999;SDS011;3028;49.468;7.694;2023-05-09T11:48:29;1.05;;;1.05;;
5999;SDS011;3028;49.468;7.694;2023-05-09T11:50:33;1.58;;;1.35;;
5999;SDS011;3028;49.468;7.694;2023-05-09T11:52:36;1.20;;;1.10;;
5999;SDS011;3028;49.468;7.694;2023-05-09T11:54:39;1.02;;;1.02;;
5999;SDS011;3028;49.468;7.694;2023-05-09T11:56:42;1.33;;;1.08;;
5999;SDS011;3028;49.468;7.694;2023-05-09T11:58:43;1.15;;;1.10;;
5999;SDS011;3028;49.468;7.694;2023-05-09T12:00:47;2.05;;;1.10;;
5999;SDS011;3028;49.468;7.694;2023-05-09T12:02:49;1.30;;;1.20;;
5999;SDS011;3028;49.468;7.694;2023-05-09T12:05:00;1.35;;;1.25;;
5999;SDS011;3028;49.468;7.694;2023-05-09T12:07:07;0.98;;;0.98;;
5999;SDS011;3028;49.468;7.694;2023-05-09T12:09:11;2.17;;;1.05;;
5999;SDS011;3028;49.468;7.694;2023-05-09T12:11:14;1.65;;;1.50;;
5999;SDS011;3028;49.468;7.694;2023-05-09T12:13:16;1.52;;;1.20;;
5999;SDS011;3028;49.468;7.694;2023-05-09T12:15:19;1.30;;;1.20;;
5999;SDS011;3028;49.468;7.694;2023-05-09T12:17:24;1.30;;;1.13;;
5999;SDS011;3028;49.468;7.694;2023-05-09T12:19:31;1.70;;;1.40;;
5999;SDS011;3028;49.468;7.694;2023-05-09T12:21:36;1.80;;;1.35;;
5999;SDS011;3028;49.468;7.694;2023-05-09T12:23:41;1.95;;;1.40;;
5999;SDS011;3028;49.468;7.694;2023-05-09T12:25:53;1.48;;;1.38;;
5999;SDS011;3028;49.468;7.694;2023-05-09T12:27:56;1.65;;;1.50;;
5999;SDS011;3028;49.468;7.694;2023-05-09T12:30:00;2.10;;;1.40;;
5999;SDS011;3028;49.468;7.694;2023-05-09T12:32:09;1.45;;;1.35;;
5999;SDS011;3028;49.468;7.694;2023-05-09T12:34:12;1.30;;;1.20;;
5999;SDS011;3028;49.468;7.694;2023-05-09T12:36:15;1.88;;;1.20;;
5999;SDS011;3028;49.468;7.694;2023-05-09T12:38:22;1.80;;;1.63;;
5999;SDS011;3028;49.468;7.694;2023-05-09T12:40:25;1.35;;;1.02;;
5999;SDS011;3028;49.468;7.694;2023-05-09T12:42:29;1.35;;;1.25;;
5999;SDS011;3028;49.468;7.694;2023-05-09T12:44:34;2.70;;;1.60;;
5999;SDS011;3028;49.468;7.694;2023-05-09T12:46:38;2.50;;;1.20;;
5999;SDS011;3028;49.468;7.694;2023-05-09T12:48:40;1.85;;;1.02;;
5999;SDS011;3028;49.468;7.694;2023-05-09T12:50:45;1.42;;;1.20;;
5999;SDS011;3028;49.468;7.694;2023-05-09T12:52:49;2.72;;;1.10;;
5999;SDS011;3028;49.468;7.694;2023-05-09T12:55:11;1.40;;;1.30;;
5999;SDS011;3028;49.468;7.694;2023-05-09T12:57:23;4.38;;;1.48;;
5999;SDS011;3028;49.468;7.694;2023-05-09T12:59:33;1.80;;;1.30;;